Time;durP1;ratioP1;P1;durP2;ratioP2;P2;SDS_P1;SDS_P2;PMS_P1;PMS_P2;Temp;Humidity;BMP_temperature;BMP_pressure;BME280_temperature;BME280_humidity;BME280_pressure;Samples;Min_cycle;Max_cycle;Signal;HPM_P1;HPM_P2
2023/01/03 00:00:51;;;;;;;47.90;29.50;;;;;;;5.36;100.00;98979.80;104382;1292;22314;-80
2023/01/03 00:03:32;;;;;;;49.30;27.50;;;;;;;5.35;100.00;98979.83;104708;1305;138196;-80
2023/01/03 00:05:59;;;;;;;54.20;29.90;;;;;;;5.34;100.00;98984.77;105432;1288;22161;-81
2023/01/03 00:08:27;;;;;;;55.40;29.60;;;;;;;5.32;100.00;98989.63;103883;1300;22555;-80
2023/01/03 00:10:54;;;;;;;57.60;31.30;;;;;;;5.32;100.00;98994.02;103994;1289;138889;-79
2023/01/03 00:13:21;;;;;;;52.50;28.60;;;;;;;5.30;100.00;98994.10;103513;1298;23139;-79
2023/01/03 00:15:48;;;;;;;49.30;27.10;;;;;;;5.28;100.00;98995.71;103849;1306;138607;-80
2023/01/03 00:18:15;;;;;;;56.10;29.30;;;;;;;5.26;100.00;98994.58;103158;1298;24452;-80
2023/01/03 00:20:42;;;;;;;54.10;30.00;;;;;;;5.25;100.00;98991.70;103092;1288;138333;-79
2023/01/03 00:23:09;;;;;;;46.70;27.30;;;;;;;5.24;100.00;98994.88;103413;1292;22623;-80
2023/01/03 00:25:35;;;;;;;49.80;28.50;;;;;;;5.23;100.00;98989.44;104002;1307;23082;-80
2023/01/03 00:28:03;;;;;;;51.40;28.30;;;;;;;5.23;100.00;98986.40;103139;1292;138269;-80
2023/01/03 00:30:29;;;;;;;45.50;24.90;;;;;;;5.23;100.00;98998.00;103315;1299;25543;-80
2023/01/03 00:32:56;;;;;;;53.80;29.20;;;;;;;5.24;100.00;99002.58;103149;1291;139529;-80
2023/01/03 00:35:23;;;;;;;47.80;26.20;;;;;;;5.25;100.00;99001.98;103701;1292;22465;-80
2023/01/03 00:37:50;;;;;;;49.00;26.10;;;;;;;5.25;100.00;98997.30;103160;1291;27548;-79
2023/01/03 00:40:17;;;;;;;46.10;24.80;;;;;;;5.25;100.00;98992.41;103034;1291;138108;-80
2023/01/03 00:45:29;;;;;;;40.80;22.50;;;;;;;5.27;100.00;98990.89;103369;1304;139396;-80
2023/01/03 00:47:56;;;;;;;41.90;22.70;;;;;;;5.28;100.00;98997.54;103206;1291;22488;-81
2023/01/03 00:50:23;;;;;;;39.30;21.80;;;;;;;5.30;100.00;99005.94;103686;1289;22485;-80
2023/01/03 00:52:50;;;;;;;42.10;24.50;;;;;;;5.31;100.00;99006.89;103377;1310;138884;-80
2023/01/03 00:55:16;;;;;;;39.80;20.60;;;;;;;5.33;100.00;99012.11;103630;1284;22564;-80
2023/01/03 00:57:43;;;;;;;39.20;22.60;;;;;;;5.33;100.00;99017.98;103692;1296;138289;-79
2023/01/03 01:00:11;;;;;;;48.00;26.30;;;;;;;5.35;100.00;99029.24;103893;1298;22333;-80
2023/01/03 01:02:37;;;;;;;49.60;28.50;;;;;;;5.33;100.00;99033.12;103155;1289;138865;-76
2023/01/03 01:05:05;;;;;;;49.20;27.10;;;;;;;5.29;100.00;99033.06;103880;1296;25205;-80
2023/01/03 01:07:32;;;;;;;56.90;29.40;;;;;;;5.25;100.00;99032.35;103160;1289;26174;-80
2023/01/03 01:09:59;;;;;;;50.40;29.10;;;;;;;5.20;100.00;99037.72;103511;1297;140262;-80
2023/01/03 01:12:26;;;;;;;52.60;29.40;;;;;;;5.13;100.00;99040.50;103128;1297;22549;-80
2023/01/03 01:14:53;;;;;;;46.70;25.60;;;;;;;5.06;100.00;99031.27;103454;1291;139523;-80
2023/01/03 01:17:20;;;;;;;50.70;28.70;;;;;;;5.00;100.00;99031.24;103727;1298;22530;-79
2023/01/03 01:19:47;;;;;;;48.60;26.50;;;;;;;4.94;100.00;99035.52;103628;1297;23071;-80
2023/01/03 01:22:14;;;;;;;46.40;26.40;;;;;;;4.89;100.00;99039.59;103662;1292;138051;-79
2023/01/03 01:24:41;;;;;;;54.30;28.60;;;;;;;4.83;100.00;99036.41;103129;1290;25344;-80
2023/01/03 01:27:09;;;;;;;45.90;24.60;;;;;;;4.78;100.00;99044.96;103721;1291;138267;-80
2023/01/03 01:29:36;;;;;;;45.00;26.00;;;;;;;4.71;99.85;99052.45;104361;1310;22497;-80
2023/01/03 01:32:04;;;;;;;47.40;25.70;;;;;;;4.65;99.74;99050.39;103485;1291;23462;-80
2023/01/03 01:34:31;;;;;;;43.50;24.50;;;;;;;4.58;99.55;99052.11;103030;1298;137963;-80
2023/01/03 01:36:59;;;;;;;44.30;24.50;;;;;;;4.51;99.58;99057.77;103129;1312;22620;-80
2023/01/03 01:39:27;;;;;;;45.00;24.60;;;;;;;4.49;100.00;99053.77;103427;1284;138034;-80
2023/01/03 01:45:11;;;;;;;46.60;25.10;;;;;;;4.49;100.00;99061.31;104367;1291;138779;-80
2023/01/03 01:48:04;;;;;;;48.10;26.20;;;;;;;4.49;100.00;99058.45;103208;1291;22491;-80
2023/01/03 01:50:51;;;;;;;47.70;25.50;;;;;;;4.49;100.00;99055.08;103471;1292;22495;-80
2023/01/03 01:53:26;;;;;;;43.50;24.20;;;;;;;4.49;100.00;99055.23;103211;1289;24322;-80
2023/01/03 01:56:02;;;;;;;45.90;25.30;;;;;;;4.48;100.00;99054.33;103512;1295;22966;-80
2023/01/03 01:58:38;;;;;;;42.60;22.80;;;;;;;4.47;100.00;99050.80;102932;1313;139438;-80
2023/01/03 02:01:10;;;;;;;47.60;24.80;;;;;;;4.47;100.00;99051.00;103239;1292;22962;-80
2023/01/03 02:03:40;;;;;;;48.40;24.50;;;;;;;4.46;100.00;99053.40;103015;1304;138055;-80
2023/01/03 02:06:09;;;;;;;47.90;25.90;;;;;;;4.47;100.00;99054.73;104585;1311;22461;-80
2023/01/03 02:08:36;;;;;;;46.50;24.80;;;;;;;4.47;100.00;99049.84;103104;1291;22506;-81
2023/01/03 02:11:19;;;;;;;49.10;25.40;;;;;;;4.47;100.00;99047.69;103163;1297;138172;-80
2023/01/03 02:14:08;;;;;;;51.70;26.80;;;;;;;4.46;100.00;99046.39;103041;1288;25473;-80
2023/01/03 02:17:09;;;;;;;46.30;26.00;;;;;;;4.45;100.00;99051.02;103638;1289;138141;-81
2023/01/03 02:20:04;;;;;;;47.20;25.60;;;;;;;4.46;100.00;99046.47;103030;1300;25307;-80
2023/01/03 02:22:31;;;;;;;44.30;24.00;;;;;;;4.46;100.00;99047.01;102881;1302;138153;-80
2023/01/03 02:25:37;;;;;;;48.10;26.50;;;;;;;4.46;100.00;99045.19;103810;1298;23007;-81
2023/01/03 02:28:10;;;;;;;47.70;25.40;;;;;;;4.46;100.00;99047.27;104045;1313;138304;-79
2023/01/03 02:30:44;;;;;;;40.40;23.40;;;;;;;4.47;100.00;99046.43;103259;1289;22492;-80
2023/01/03 02:33:22;;;;;;;44.80;24.30;;;;;;;4.49;100.00;99043.92;103869;1294;138425;-80
2023/01/03 02:35:59;;;;;;;39.90;24.40;;;;;;;4.52;100.00;99049.06;104630;1299;22456;-80
2023/01/03 02:38:46;;;;;;;41.60;23.60;;;;;;;4.55;100.00;99056.43;103163;1289;24979;-80
2023/01/03 02:41:22;;;;;;;37.80;21.00;;;;;;;4.58;100.00;99057.02;103668;1292;24019;-79
2023/01/03 02:44:01;;;;;;;34.00;19.40;;;;;;;4.62;100.00;99062.38;103433;1288;22475;-79
2023/01/03 02:46:37;;;;;;;40.20;22.30;;;;;;;4.68;100.00;99070.27;103093;1290;138364;-80
2023/01/03 02:49:18;;;;;;;42.30;22.00;;;;;;;4.72;100.00;99070.64;103142;1291;22526;-79
2023/01/03 02:52:08;;;;;;;34.40;20.00;;;;;;;4.77;100.00;99069.33;103042;1301;139150;-79
2023/01/03 02:54:37;;;;;;;;;;;;;;;4.83;100.00;99065.05;103164;1304;22449;-79
2023/01/03 02:57:08;;;;;;;29.80;17.10;;;;;;;4.88;100.00;99061.46;102969;1291;125897;-80
2023/01/03 02:59:59;;;;;;;27.90;15.40;;;;;;;4.94;100.00;99059.98;103100;1312;22509;-79
2023/01/03 03:02:31;;;;;;;25.10;15.20;;;;;;;5.01;100.00;99060.00;103354;1291;25383;-80
2023/01/03 03:05:01;;;;;;;25.30;13.70;;;;;;;5.09;100.00;99060.36;103259;1298;138114;-80
2023/01/03 03:07:33;;;;;;;24.50;14.30;;;;;;;5.18;100.00;99067.66;103636;1304;22918;-80
2023/01/03 03:15:52;;;;;;;22.60;12.80;;;;;;;5.42;100.00;99068.10;103164;1298;138316;-80
2023/01/03 03:18:32;;;;;;;23.40;11.90;;;;;;;5.48;100.00;99064.70;104308;1297;22551;-80
2023/01/03 03:26:41;;;;;;;16.10;9.80;;;;;;;5.68;100.00;99089.55;103862;1292;22488;-80
2023/01/03 03:29:13;;;;;;;19.80;11.40;;;;;;;5.75;100.00;99097.80;104257;1312;137756;-80
2023/01/03 03:31:43;;;;;;;20.50;11.80;;;;;;;5.81;100.00;99101.70;103107;1312;24314;-79
2023/01/03 03:34:22;;;;;;;20.40;11.40;;;;;;;5.88;100.00;99109.10;103398;1296;138054;-80
2023/01/03 03:37:03;;;;;;;21.00;12.30;;;;;;;5.94;100.00;99108.77;103040;1308;22486;-80
2023/01/03 03:46:05;;;;;;;15.60;10.10;;;;;;;6.17;99.46;99110.30;105314;1298;138693;-79
2023/01/03 03:51:53;;;;;;;17.80;9.90;;;;;;;6.29;98.54;99110.15;103120;1288;138820;-80
2023/01/03 03:54:22;;;;;;;20.00;10.40;;;;;;;6.31;98.31;99107.32;103551;1303;22651;-80
2023/01/03 03:57:01;;;;;;;16.90;10.80;;;;;;;6.32;97.99;99113.31;104171;1303;138435;-78
2023/01/03 03:59:31;;;;;;;20.10;11.60;;;;;;;6.33;97.88;99114.63;103561;1303;22498;-80
2023/01/03 04:02:02;;;;;;;19.10;10.40;;;;;;;6.35;97.59;99118.20;104155;1304;22467;-80
2023/01/03 04:04:41;;;;;;;17.50;11.00;;;;;;;6.36;97.69;99122.95;103112;1297;138390;-80
2023/01/03 04:07:08;;;;;;;19.80;11.10;;;;;;;6.36;97.51;99126.16;103115;1313;22518;-80
2023/01/03 04:09:35;;;;;;;19.50;11.30;;;;;;;6.36;97.08;99128.19;103029;1290;138280;-80
2023/01/03 04:12:02;;;;;;;21.70;11.60;;;;;;;6.36;97.19;99124.58;103088;1304;24263;-80
2023/01/03 04:14:29;;;;;;;19.90;10.70;;;;;;;6.36;97.46;99130.53;103073;1288;25396;-80
2023/01/03 04:16:57;;;;;;;23.20;12.40;;;;;;;6.36;97.19;99135.52;102947;1298;138056;-80
2023/01/03 04:19:24;;;;;;;25.20;13.20;;;;;;;6.37;97.34;99136.19;103456;1283;22486;-81
2023/01/03 04:21:50;;;;;;;24.50;13.60;;;;;;;6.37;97.35;99137.81;102914;1290;137974;-80
2023/01/03 04:24:19;;;;;;;24.80;14.10;;;;;;;6.36;97.22;99140.64;103106;1290;22483;-79
2023/01/03 04:26:47;;;;;;;21.40;12.90;;;;;;;6.35;97.21;99139.51;103118;1296;22495;-81
2023/01/03 04:29:14;;;;;;;26.50;14.90;;;;;;;6.34;97.32;99149.20;103019;1299;139059;-81
2023/01/03 04:31:41;;;;;;;24.80;14.90;;;;;;;6.32;97.07;99152.45;103101;1288;22601;-79
2023/01/03 04:34:08;;;;;;;22.30;12.90;;;;;;;6.31;97.20;99156.59;103312;1289;139845;-81
2023/01/03 04:36:35;;;;;;;24.20;14.10;;;;;;;6.30;96.93;99160.77;103154;1305;23889;-81
2023/01/03 04:39:02;;;;;;;25.50;13.80;;;;;;;6.27;96.85;99170.73;103143;1289;139444;-80
2023/01/03 04:41:29;;;;;;;25.00;14.50;;;;;;;6.26;96.92;99173.29;103430;1304;25158;-80
2023/01/03 04:44:02;;;;;;;24.90;13.50;;;;;;;6.24;97.02;99175.61;103243;1298;25260;-80
2023/01/03 04:46:34;;;;;;;24.90;14.30;;;;;;;6.24;97.15;99174.08;103047;1288;138061;-80
2023/01/03 04:49:03;;;;;;;28.40;14.00;;;;;;;6.23;97.35;99176.52;103578;1312;24811;-81
2023/01/03 04:51:31;;;;;;;25.70;13.80;;;;;;;6.23;97.00;99180.35;104025;1298;138197;-80
2023/01/03 04:53:58;;;;;;;26.60;14.70;;;;;;;6.22;97.06;99177.35;103187;1296;24251;-80
2023/01/03 04:56:31;;;;;;;23.70;13.30;;;;;;;6.22;97.11;99180.25;103515;1298;24354;-81
2023/01/03 04:58:58;;;;;;;23.50;14.00;;;;;;;6.21;97.11;99181.09;103114;1302;138113;-81
2023/01/03 05:01:25;;;;;;;27.30;15.00;;;;;;;6.21;96.98;99181.33;103204;1281;22728;-80
2023/01/03 05:03:56;;;;;;;26.30;14.70;;;;;;;6.21;97.07;99180.33;103870;1304;138037;-80
2023/01/03 05:06:25;;;;;;;23.40;13.40;;;;;;;6.20;96.80;99185.79;104489;1311;22583;-80
2023/01/03 05:08:52;;;;;;;30.20;15.00;;;;;;;6.20;96.75;99188.48;103056;1291;138158;-79
2023/01/03 05:11:19;;;;;;;24.30;14.40;;;;;;;6.20;97.13;99188.45;103477;1289;22493;-80
2023/01/03 05:13:46;;;;;;;23.30;12.90;;;;;;;6.20;96.99;99189.90;103668;1297;22265;-80
2023/01/03 05:16:15;;;;;;;29.00;15.00;;;;;;;6.20;96.85;99189.95;103581;1289;139455;-80
2023/01/03 05:18:45;;;;;;;27.60;14.90;;;;;;;6.19;96.64;99191.31;103213;1298;22556;-81
2023/01/03 05:26:51;;;;;;;30.80;15.00;;;;;;;6.14;96.86;99210.88;103646;1296;23908;-80
2023/01/03 05:29:20;;;;;;;27.70;16.90;;;;;;;6.12;96.59;99217.44;103408;1285;22745;-81
2023/01/03 05:31:48;;;;;;;31.40;16.60;;;;;;;6.10;96.40;99218.65;103314;1305;22489;-80
2023/01/03 05:34:15;;;;;;;29.70;15.60;;;;;;;6.06;96.56;99223.73;103575;1306;137987;-81
2023/01/03 05:36:42;;;;;;;30.70;16.70;;;;;;;6.05;96.53;99229.70;104379;1291;24897;-81
2023/01/03 05:39:09;;;;;;;29.70;15.10;;;;;;;6.02;96.60;99230.17;103618;1311;140640;-80
2023/01/03 05:44:21;;;;;;;30.80;17.00;;;;;;;5.99;96.65;99243.63;103485;1285;22542;-80
2023/01/03 05:46:48;;;;;;;31.50;16.70;;;;;;;5.98;96.66;99245.77;103871;1288;138393;-80
2023/01/03 05:49:15;;;;;;;32.50;17.60;;;;;;;5.96;96.80;99254.25;103136;1299;23386;-80
2023/01/03 05:51:42;;;;;;;35.10;19.90;;;;;;;5.94;96.78;99256.86;103103;1312;138001;-80
2023/01/03 05:54:13;;;;;;;35.80;19.70;;;;;;;5.93;96.73;99264.38;103450;1289;22671;-80
2023/01/03 05:56:40;;;;;;;36.30;19.10;;;;;;;5.90;96.85;99268.80;103166;1291;25606;-80
2023/01/03 05:59:07;;;;;;;42.20;19.30;;;;;;;5.89;96.91;99267.39;103050;1297;137901;-80
2023/01/03 06:01:34;;;;;;;38.40;20.40;;;;;;;5.87;97.23;99268.88;103947;1284;23437;-80
2023/01/03 06:04:01;;;;;;;39.10;19.30;;;;;;;5.86;97.03;99270.14;104098;1281;137897;-80
2023/01/03 06:06:28;;;;;;;35.50;19.40;;;;;;;5.84;97.32;99267.33;103294;1291;24258;-80
2023/01/03 06:08:55;;;;;;;34.60;18.90;;;;;;;5.82;97.12;99269.90;102872;1289;138337;-79
2023/01/03 06:11:21;;;;;;;40.20;20.80;;;;;;;5.79;97.01;99270.41;103549;1291;25339;-80
2023/01/03 06:13:50;;;;;;;33.70;20.40;;;;;;;5.77;97.08;99270.33;104415;1294;26499;-80
2023/01/03 06:19:07;;;;;;;37.30;19.50;;;;;;;5.71;97.20;99277.16;102897;1303;22538;-80
2023/01/03 06:21:35;;;;;;;35.00;19.00;;;;;;;5.68;97.21;99275.02;103062;1291;139305;-79
2023/01/03 06:24:03;;;;;;;35.90;19.90;;;;;;;5.67;97.08;99280.41;103231;1295;22480;-80
2023/01/03 06:26:30;;;;;;;33.70;19.00;;;;;;;5.64;97.44;99286.95;103788;1300;22577;-81
2023/01/03 06:28:58;;;;;;;37.40;21.30;;;;;;;5.61;97.49;99290.33;104571;1295;140485;-80
2023/01/03 06:31:24;;;;;;;35.70;19.20;;;;;;;5.59;97.41;99297.63;105640;1298;22265;-81
2023/01/03 06:33:51;;;;;;;36.60;19.30;;;;;;;5.58;97.54;99303.20;103588;1297;137994;-81
2023/01/03 06:36:21;;;;;;;34.30;19.90;;;;;;;5.57;97.51;99304.62;103629;1289;23226;-80
2023/01/03 06:38:47;;;;;;;;;;;;;;;5.56;97.78;99310.50;105978;1291;25336;-81
2023/01/03 06:41:15;;;;;;;33.40;18.50;;;;;;;5.53;97.75;99319.52;104374;1295;124654;-81
2023/01/03 06:43:42;;;;;;;35.30;19.40;;;;;;;5.51;97.63;99331.95;103748;1294;22490;-80
2023/01/03 06:54:35;;;;;;;35.30;19.00;;;;;;;5.47;98.06;99337.80;103155;1308;24303;-79
2023/01/03 06:57:04;;;;;;;37.50;20.40;;;;;;;5.46;98.12;99339.38;103248;1297;197738;-80
2023/01/03 06:59:31;;;;;;;42.20;20.90;;;;;;;5.45;98.15;99342.02;103072;1313;22617;-80
2023/01/03 07:01:58;;;;;;;31.80;16.20;;;;;;;5.44;98.06;99349.70;104332;1294;24772;-81
2023/01/03 07:04:25;;;;;;;39.50;22.10;;;;;;;5.42;98.05;99351.55;103242;1304;139057;-80
2023/01/03 07:06:52;;;;;;;35.70;19.80;;;;;;;5.41;98.32;99352.58;103355;1295;22469;-81
2023/01/03 07:09:19;;;;;;;40.70;20.60;;;;;;;5.40;98.14;99354.90;103160;1298;138037;-80
2023/01/03 07:11:46;;;;;;;41.50;20.50;;;;;;;5.41;98.24;99355.94;103244;1313;22735;-80
2023/01/03 07:14:13;;;;;;;38.20;20.90;;;;;;;5.40;98.14;99359.96;103708;1290;22587;-80
2023/01/03 07:16:43;;;;;;;36.90;21.00;;;;;;;5.39;98.31;99358.99;104066;1298;137973;-80
2023/01/03 07:19:14;;;;;;;45.00;21.70;;;;;;;5.39;98.31;99354.13;105678;1306;24481;-80
2023/01/03 07:21:41;;;;;;;39.20;20.70;;;;;;;5.40;98.28;99362.83;104411;1291;137875;-80
2023/01/03 07:24:12;;;;;;;36.90;20.90;;;;;;;5.41;98.54;99365.28;104601;1298;24227;-80
2023/01/03 07:26:39;;;;;;;34.20;20.10;;;;;;;5.42;98.51;99368.54;104215;1297;22753;-80
2023/01/03 07:29:08;;;;;;;40.60;20.50;;;;;;;5.43;98.53;99366.22;105469;1301;139768;-81
2023/01/03 07:31:38;;;;;;;42.30;22.80;;;;;;;5.46;98.71;99374.30;104894;1291;22497;-80
2023/01/03 07:34:05;;;;;;;42.90;23.20;;;;;;;5.47;98.59;99376.00;104383;1297;138815;-80
2023/01/03 07:36:32;;;;;;;40.10;23.20;;;;;;;5.48;98.43;99380.76;103376;1309;22476;-80
2023/01/03 07:38:59;;;;;;;40.60;20.60;;;;;;;5.49;98.52;99382.26;103270;1289;138594;-80
2023/01/03 07:43:35;;;;;;;34.00;19.10;;;;;;;5.50;98.39;99383.02;103543;1292;22378;-83
2023/01/03 07:44:13;;;;;;;37.10;20.50;;;;;;;5.53;98.78;99387.70;103933;1289;22534;-81
2023/01/03 07:46:40;;;;;;;37.30;20.70;;;;;;;5.57;98.70;99394.86;104332;1289;138424;-81
2023/01/03 07:49:06;;;;;;;39.00;22.10;;;;;;;5.58;98.58;99392.38;105631;1298;24259;-80
2023/01/03 07:51:33;;;;;;;40.60;22.50;;;;;;;5.60;98.42;99397.11;103877;1288;138240;-80
2023/01/03 07:54:01;;;;;;;39.80;21.90;;;;;;;5.62;98.58;99399.75;104340;1288;25298;-80
2023/01/03 07:56:28;;;;;;;40.90;22.70;;;;;;;5.63;98.67;99404.67;105629;1298;22482;-81
2023/01/03 07:58:55;;;;;;;38.70;21.10;;;;;;;5.64;98.31;99410.80;103200;1306;137863;-81
2023/01/03 08:01:23;;;;;;;37.10;21.30;;;;;;;5.66;98.40;99410.44;104099;1281;22468;-81
2023/01/03 08:03:52;;;;;;;39.00;22.20;;;;;;;5.67;98.31;99415.60;104095;1297;138993;-81
2023/01/03 08:06:21;;;;;;;43.10;24.30;;;;;;;5.66;98.19;99419.79;103600;1282;24498;-80
2023/01/03 08:14:20;;;;;;;45.20;25.70;;;;;;;5.64;98.30;99431.54;103666;1291;22557;-80
2023/01/03 08:16:48;;;;;;;44.50;24.50;;;;;;;5.64;98.08;99429.28;102943;1291;138631;-80
2023/01/03 08:19:15;;;;;;;43.60;23.50;;;;;;;5.64;98.15;99432.89;103195;1298;22476;-80
2023/01/03 08:21:42;;;;;;;42.20;21.80;;;;;;;5.64;98.32;99428.88;103088;1290;139009;-79
2023/01/03 08:24:09;;;;;;;40.40;23.90;;;;;;;5.66;98.15;99429.52;103642;1298;22471;-81
2023/01/03 08:26:36;;;;;;;43.80;24.40;;;;;;;5.67;98.11;99428.66;103290;1298;23588;-81
2023/01/03 08:29:03;;;;;;;45.80;24.70;;;;;;;5.68;98.34;99430.75;103024;1306;138661;-80
2023/01/03 08:31:34;;;;;;;48.40;25.10;;;;;;;5.69;98.28;99435.63;103129;1301;22527;-80
2023/01/03 08:34:03;;;;;;;43.60;24.60;;;;;;;5.71;98.45;99443.00;103219;1289;138729;-81
2023/01/03 08:36:37;;;;;;;44.20;25.00;;;;;;;5.74;98.51;99442.41;104178;1289;25372;-81
2023/01/03 08:39:09;;;;;;;45.10;24.60;;;;;;;5.77;98.21;99437.89;103202;1304;138188;-79
2023/01/03 08:41:42;;;;;;;49.90;25.60;;;;;;;5.82;98.60;99441.44;103419;1291;22873;-80
2023/01/03 08:44:09;;;;;;;45.40;24.10;;;;;;;5.87;98.61;99443.90;104074;1296;22744;-80
2023/01/03 08:46:42;;;;;;;48.10;25.90;;;;;;;5.92;98.36;99442.01;104471;1305;138534;-80
2023/01/03 08:49:10;;;;;;;44.70;24.40;;;;;;;5.98;98.40;99443.90;104359;1297;22538;-80
2023/01/03 08:51:38;;;;;;;45.30;24.50;;;;;;;6.04;98.59;99446.92;103195;1298;138310;-80
2023/01/03 08:54:06;;;;;;;41.60;24.10;;;;;;;6.10;98.36;99451.89;104407;1304;25207;-81
2023/01/03 08:56:35;;;;;;;46.00;22.30;;;;;;;6.16;98.42;99453.12;104272;1297;24354;-80
2023/01/03 08:59:02;;;;;;;38.20;22.60;;;;;;;6.22;98.30;99453.02;104596;1304;138041;-81
2023/01/03 09:01:29;;;;;;;41.80;21.80;;;;;;;6.29;98.21;99452.59;103724;1297;22533;-81
2023/01/03 09:03:56;;;;;;;38.30;22.00;;;;;;;6.36;98.10;99451.03;103872;1285;138030;-81
2023/01/03 09:06:23;;;;;;;37.40;21.00;;;;;;;6.43;98.13;99445.19;104485;1288;25200;-81
2023/01/03 09:08:50;;;;;;;30.20;17.90;;;;;;;6.52;97.96;99445.52;104903;1301;22317;-81
2023/01/03 09:11:17;;;;;;;31.70;18.10;;;;;;;6.62;98.03;99440.31;104671;1289;138393;-81
2023/01/03 09:13:44;;;;;;;25.60;13.90;;;;;;;6.71;97.83;99441.70;103371;1304;22480;-81
2023/01/03 09:16:12;;;;;;;22.60;12.80;;;;;;;6.80;97.55;99447.39;104449;1284;138675;-81
2023/01/03 09:18:40;;;;;;;25.60;12.90;;;;;;;6.92;97.61;99446.39;105653;1303;22325;-81
2023/01/03 10:08:17;;;;;;;8.10;4.60;;;;;;;9.16;84.21;99442.33;100594;1332;562469;-81
2023/01/03 10:10:55;;;;;;;10.20;4.30;;;;;;;9.08;83.56;99445.22;101522;1323;183353;-80
2023/01/03 10:14:03;;;;;;;9.50;4.40;;;;;;;9.00;83.99;99444.19;102058;1322;22488;-80
2023/01/03 10:16:46;;;;;;;7.60;5.20;;;;;;;8.90;84.37;99443.24;101354;1314;138039;-80
2023/01/03 10:19:36;;;;;;;10.10;7.20;;;;;;;8.86;85.03;99446.88;101549;1323;22527;-80
2023/01/03 10:22:15;;;;;;;11.70;6.80;;;;;;;8.81;85.26;99443.10;101374;1307;137522;-80
2023/01/03 10:24:46;;;;;;;14.80;8.80;;;;;;;8.76;84.97;99448.84;101314;1329;24372;-81
2023/01/03 10:27:19;;;;;;;16.20;9.70;;;;;;;8.72;85.49;99452.38;101692;1316;25333;-80
2023/01/03 10:29:54;;;;;;;19.90;11.80;;;;;;;8.70;85.62;99454.02;101221;1321;137428;-81
2023/01/03 10:32:39;;;;;;;21.30;12.70;;;;;;;8.66;85.71;99449.38;101324;1331;25663;-81
2023/01/03 10:35:33;;;;;;;20.00;12.90;;;;;;;8.63;85.92;99446.91;101828;1307;138062;-80
2023/01/03 10:38:00;;;;;;;22.80;13.40;;;;;;;8.62;86.02;99447.88;101664;1309;24641;-80
2023/01/03 10:40:41;;;;;;;16.70;12.10;;;;;;;8.61;86.01;99446.48;101325;1322;137809;-81
2023/01/03 10:43:38;;;;;;;20.90;13.50;;;;;;;8.61;86.17;99446.11;101453;1318;23041;-80
2023/01/03 10:46:16;;;;;;;19.00;11.50;;;;;;;8.65;86.11;99450.80;101083;1320;137885;-81
2023/01/03 10:48:46;;;;;;;19.90;11.20;;;;;;;8.68;86.08;99446.04;101089;1328;22499;-80
2023/01/03 10:51:39;;;;;;;17.10;10.50;;;;;;;8.74;85.92;99440.27;102555;1304;22549;-81
2023/01/03 10:54:41;;;;;;;14.90;8.60;;;;;;;8.78;85.48;99438.93;101918;1307;22565;-80
2023/01/03 10:57:41;;;;;;;16.60;9.10;;;;;;;8.84;84.99;99443.98;101462;1315;22501;-80
2023/01/03 11:00:22;;;;;;;14.10;8.40;;;;;;;8.86;84.59;99451.89;101379;1309;23451;-80
2023/01/03 11:02:49;;;;;;;14.00;7.90;;;;;;;8.90;84.10;99451.64;102046;1298;24407;-80
2023/01/03 11:05:26;;;;;;;15.60;7.90;;;;;;;8.93;84.10;99453.52;102807;1297;137627;-79
2023/01/03 11:08:04;;;;;;;12.90;7.00;;;;;;;8.94;83.48;99450.88;102508;1304;22497;-79
2023/01/03 11:10:48;;;;;;;6.50;4.20;;;;;;;8.91;80.97;99447.82;101825;1307;137490;-80
2023/01/03 11:13:39;;;;;;;4.90;3.10;;;;;;;8.87;78.91;99445.91;101884;1317;22561;-79
2023/01/03 11:16:15;;;;;;;4.40;2.50;;;;;;;8.80;76.75;99442.86;102254;1310;137892;-79
2023/01/03 11:18:57;;;;;;;5.80;2.60;;;;;;;8.74;77.40;99441.43;102991;1298;22477;-80
2023/01/03 11:21:40;;;;;;;5.20;3.00;;;;;;;8.68;77.46;99440.80;102355;1307;22607;-80
2023/01/03 11:24:23;;;;;;;4.00;3.10;;;;;;;8.61;75.07;99442.64;102473;1311;24416;-79
2023/01/03 11:27:02;;;;;;;3.90;2.50;;;;;;;8.56;75.78;99437.71;102672;1299;22482;-79
2023/01/03 11:30:02;;;;;;;4.10;2.90;;;;;;;8.50;75.15;99434.16;102397;1288;137244;-79
2023/01/03 11:32:59;;;;;;;4.00;2.80;;;;;;;8.46;74.75;99431.35;102405;1301;22549;-79
2023/01/03 11:35:37;;;;;;;3.70;2.70;;;;;;;8.43;75.39;99436.10;102440;1316;139027;-80
2023/01/03 11:38:13;;;;;;;4.80;2.80;;;;;;;8.39;75.64;99435.28;102815;1284;22486;-80
2023/01/03 11:40:52;;;;;;;5.60;2.80;;;;;;;8.38;75.81;99437.08;102868;1287;137280;-81
2023/01/03 11:43:19;;;;;;;4.20;2.70;;;;;;;8.35;75.91;99429.97;102493;1308;22691;-80
2023/01/03 11:46:15;;;;;;;5.00;2.70;;;;;;;8.35;75.59;99432.69;102830;1303;137415;-80
2023/01/03 11:48:53;;;;;;;4.90;2.60;;;;;;;8.34;76.04;99437.23;101711;1300;22484;-80
2023/01/03 11:51:31;;;;;;;5.80;2.70;;;;;;;8.32;76.17;99432.23;101748;1296;25413;-80
2023/01/03 11:54:02;;;;;;;5.60;2.50;;;;;;;8.31;76.23;99431.13;101635;1323;138163;-79
2023/01/03 11:56:39;;;;;;;5.30;2.50;;;;;;;8.30;75.74;99428.76;102036;1310;22506;-80
2023/01/03 11:59:19;;;;;;;5.40;2.70;;;;;;;8.31;76.24;99432.10;101688;1310;137860;-81
2023/01/03 12:01:56;;;;;;;6.20;2.70;;;;;;;8.33;76.64;99429.80;101802;1303;22536;-80
2023/01/03 12:04:25;;;;;;;7.30;3.40;;;;;;;8.36;76.62;99422.80;101608;1309;137589;-80
2023/01/03 12:06:58;;;;;;;11.10;3.80;;;;;;;8.42;76.61;99426.20;101763;1310;22504;-79
2023/01/03 12:09:37;;;;;;;6.40;3.30;;;;;;;8.50;76.44;99424.10;101739;1299;25244;-80
2023/01/03 12:12:31;;;;;;;5.00;3.40;;;;;;;8.56;76.51;99424.23;101657;1323;137081;-80
2023/01/03 12:15:01;;;;;;;5.80;3.20;;;;;;;8.64;76.80;99424.22;101690;1325;24395;-80
2023/01/03 12:17:50;;;;;;;5.40;3.40;;;;;;;8.70;76.90;99418.51;101771;1315;137487;-79
2023/01/03 12:20:35;;;;;;;5.70;4.20;;;;;;;8.79;76.79;99415.23;101694;1316;22497;-80
2023/01/03 12:23:16;;;;;;;6.80;5.00;;;;;;;8.87;77.02;99412.86;101615;1325;137887;-79
2023/01/03 12:25:50;;;;;;;7.90;4.70;;;;;;;8.94;77.19;99409.05;101815;1317;23578;-80
2023/01/03 12:28:31;;;;;;;9.30;5.40;;;;;;;9.00;77.06;99414.05;102643;1313;137406;-80
2023/01/03 12:31:07;;;;;;;7.90;4.30;;;;;;;9.04;76.45;99418.59;102871;1314;22484;-80
2023/01/03 12:34:04;;;;;;;9.40;5.50;;;;;;;9.07;76.50;99416.09;102936;1311;22503;-79
2023/01/03 12:36:56;;;;;;;12.70;5.30;;;;;;;9.12;76.33;99418.89;102910;1284;23877;-80
2023/01/03 12:39:39;;;;;;;10.60;5.80;;;;;;;9.13;76.33;99414.73;102913;1310;22611;-80
2023/01/03 12:42:13;;;;;;;10.20;5.60;;;;;;;9.16;76.45;99411.30;102659;1313;137563;-79
2023/01/03 12:44:44;;;;;;;9.60;5.80;;;;;;;9.16;76.06;99414.40;102820;1314;23890;-80
2023/01/03 12:47:43;;;;;;;17.80;10.00;;;;;;;9.15;76.50;99409.50;102556;1316;137507;-80
2023/01/03 12:50:20;;;;;;;25.20;12.60;;;;;;;9.14;77.66;99409.39;102199;1304;24293;-80
2023/01/03 12:52:56;;;;;;;22.90;13.90;;;;;;;9.17;78.27;99413.16;102217;1306;137873;-80
2023/01/03 12:56:08;;;;;;;21.20;12.30;;;;;;;9.20;78.89;99410.50;102167;1320;22623;-80
2023/01/03 12:59:08;;;;;;;22.00;13.10;;;;;;;9.17;78.81;99409.71;101559;1310;138830;-80
2023/01/03 13:01:46;;;;;;;24.00;13.60;;;;;;;9.07;79.20;99414.08;101556;1310;25508;-79
2023/01/03 13:04:18;;;;;;;23.10;14.30;;;;;;;9.01;79.46;99414.84;101317;1312;138605;-80
2023/01/03 13:06:53;;;;;;;28.10;14.90;;;;;;;8.94;79.58;99412.14;101493;1312;22485;-80
2023/01/03 13:09:30;;;;;;;29.00;15.00;;;;;;;8.88;79.90;99411.55;101503;1327;24333;-80
2023/01/03 13:12:11;;;;;;;29.20;14.20;;;;;;;8.84;80.14;99409.81;102305;1302;138631;-80
2023/01/03 13:14:52;;;;;;;25.90;14.30;;;;;;;8.80;80.30;99410.80;102035;1310;22632;-81
2023/01/03 13:17:23;;;;;;;28.20;13.60;;;;;;;8.76;80.49;99408.60;102631;1303;138074;-80
2023/01/03 13:20:13;;;;;;;24.00;13.30;;;;;;;8.74;80.47;99413.78;102138;1299;22507;-81